sensor_id;sensor_type;location;lat;lon;timestamp;P1;durP1;ratioP1;P2;durP2;ratioP2
8297;SDS011;4187;42.778;23.242;2023-04-25T00:02:11;3.55;;;2.20;;
8297;SDS011;4187;42.778;23.242;2023-04-25T00:04:38;4.25;;;3.08;;
8297;SDS011;4187;42.778;23.242;2023-04-25T00:07:05;3.45;;;2.90;;
8297;SDS011;4187;42.778;23.242;2023-04-25T00:09:33;3.65;;;2.80;;
8297;SDS011;4187;42.778;23.242;2023-04-25T00:12:00;5.60;;;2.58;;
8297;SDS011;4187;42.778;23.242;2023-04-25T00:14:27;4.15;;;3.15;;
8297;SDS011;4187;42.778;23.242;2023-04-25T00:16:53;2.85;;;2.65;;
8297;SDS011;4187;42.778;23.242;2023-04-25T00:19:21;2.50;;;2.22;;
8297;SDS011;4187;42.778;23.242;2023-04-25T00:21:48;3.50;;;2.22;;
8297;SDS011;4187;42.778;23.242;2023-04-25T00:24:15;2.83;;;2.63;;
8297;SDS011;4187;42.778;23.242;2023-04-25T00:26:43;3.95;;;3.10;;
8297;SDS011;4187;42.778;23.242;2023-04-25T00:29:10;4.55;;;3.45;;
8297;SDS011;4187;42.778;23.242;2023-04-25T00:31:36;3.30;;;3.00;;
8297;SDS011;4187;42.778;23.242;2023-04-25T00:34:03;4.03;;;3.05;;
8297;SDS011;4187;42.778;23.242;2023-04-25T00:36:30;3.35;;;2.88;;
8297;SDS011;4187;42.778;23.242;2023-04-25T00:38:57;3.20;;;3.00;;
8297;SDS011;4187;42.778;23.242;2023-04-25T00:41:24;3.53;;;3.15;;
8297;SDS011;4187;42.778;23.242;2023-04-25T00:43:53;3.88;;;3.42;;
8297;SDS011;4187;42.778;23.242;2023-04-25T00:46:20;4.50;;;3.28;;
8297;SDS011;4187;42.778;23.242;2023-04-25T00:48:47;3.58;;;3.28;;
8297;SDS011;4187;42.778;23.242;2023-04-25T00:51:15;3.78;;;3.40;;
8297;SDS011;4187;42.778;23.242;2023-04-25T00:53:45;4.07;;;3.35;;
8297;SDS011;4187;42.778;23.242;2023-04-25T00:56:12;3.67;;;3.38;;
8297;SDS011;4187;42.778;23.242;2023-04-25T00:58:40;3.50;;;3.20;;
8297;SDS011;4187;42.778;23.242;2023-04-25T01:01:09;4.88;;;3.22;;
8297;SDS011;4187;42.778;23.242;2023-04-25T01:03:37;3.03;;;2.72;;
8297;SDS011;4187;42.778;23.242;2023-04-25T01:06:07;3.28;;;2.97;;
8297;SDS011;4187;42.778;23.242;2023-04-25T01:08:34;3.15;;;2.80;;
8297;SDS011;4187;42.778;23.242;2023-04-25T01:11:01;3.83;;;2.90;;
8297;SDS011;4187;42.778;23.242;2023-04-25T01:13:28;3.20;;;2.80;;
8297;SDS011;4187;42.778;23.242;2023-04-25T01:15:57;8.60;;;5.43;;
8297;SDS011;4187;42.778;23.242;2023-04-25T01:18:25;7.30;;;5.00;;
8297;SDS011;4187;42.778;23.242;2023-04-25T01:20:52;6.20;;;4.38;;
8297;SDS011;4187;42.778;23.242;2023-04-25T01:23:22;6.00;;;3.10;;
8297;SDS011;4187;42.778;23.242;2023-04-25T01:25:49;3.33;;;3.03;;
8297;SDS011;4187;42.778;23.242;2023-04-25T01:28:17;3.60;;;3.30;;
8297;SDS011;4187;42.778;23.242;2023-04-25T01:30:45;5.15;;;4.65;;
8297;SDS011;4187;42.778;23.242;2023-04-25T01:33:13;5.50;;;4.80;;
8297;SDS011;4187;42.778;23.242;2023-04-25T01:35:41;6.35;;;5.75;;
8297;SDS011;4187;42.778;23.242;2023-04-25T01:38:08;5.82;;;5.32;;
8297;SDS011;4187;42.778;23.242;2023-04-25T01:40:37;6.57;;;5.38;;
8297;SDS011;4187;42.778;23.242;2023-04-25T01:43:06;6.68;;;4.60;;
8297;SDS011;4187;42.778;23.242;2023-04-25T01:45:36;4.40;;;3.97;;
8297;SDS011;4187;42.778;23.242;2023-04-25T01:48:05;4.13;;;3.50;;
8297;SDS011;4187;42.778;23.242;2023-04-25T01:50:32;4.85;;;3.78;;
8297;SDS011;4187;42.778;23.242;2023-04-25T01:52:59;3.58;;;2.85;;
8297;SDS011;4187;42.778;23.242;2023-04-25T01:55:26;3.60;;;3.30;;
8297;SDS011;4187;42.778;23.242;2023-04-25T01:57:55;4.10;;;3.70;;
8297;SDS011;4187;42.778;23.242;2023-04-25T02:00:22;4.28;;;3.88;;
8297;SDS011;4187;42.778;23.242;2023-04-25T02:02:49;3.35;;;3.05;;
8297;SDS011;4187;42.778;23.242;2023-04-25T02:05:18;3.85;;;3.42;;
8297;SDS011;4187;42.778;23.242;2023-04-25T02:07:47;4.05;;;3.70;;
8297;SDS011;4187;42.778;23.242;2023-04-25T02:10:14;4.13;;;3.17;;
8297;SDS011;4187;42.778;23.242;2023-04-25T02:12:41;5.05;;;3.03;;
8297;SDS011;4187;42.778;23.242;2023-04-25T02:15:10;4.50;;;3.35;;
8297;SDS011;4187;42.778;23.242;2023-04-25T02:17:37;3.88;;;3.42;;
8297;SDS011;4187;42.778;23.242;2023-04-25T02:20:05;4.15;;;3.70;;
8297;SDS011;4187;42.778;23.242;2023-04-25T02:22:32;5.00;;;4.20;;
8297;SDS011;4187;42.778;23.242;2023-04-25T02:25:00;3.95;;;3.60;;
8297;SDS011;4187;42.778;23.242;2023-04-25T02:27:29;4.63;;;4.22;;
8297;SDS011;4187;42.778;23.242;2023-04-25T02:29:56;5.45;;;4.10;;
8297;SDS011;4187;42.778;23.242;2023-04-25T02:32:24;6.57;;;5.38;;
8297;SDS011;4187;42.778;23.242;2023-04-25T02:34:52;5.68;;;5.00;;
8297;SDS011;4187;42.778;23.242;2023-04-25T02:37:19;5.15;;;4.57;;
8297;SDS011;4187;42.778;23.242;2023-04-25T02:39:46;6.15;;;4.38;;
8297;SDS011;4187;42.778;23.242;2023-04-25T02:42:12;4.97;;;4.47;;
8297;SDS011;4187;42.778;23.242;2023-04-25T02:44:39;7.55;;;5.43;;
8297;SDS011;4187;42.778;23.242;2023-04-25T02:47:06;7.72;;;5.30;;
8297;SDS011;4187;42.778;23.242;2023-04-25T02:49:34;5.30;;;4.80;;
8297;SDS011;4187;42.778;23.242;2023-04-25T02:52:01;5.57;;;5.07;;
8297;SDS011;4187;42.778;23.242;2023-04-25T02:54:28;4.97;;;4.50;;
8297;SDS011;4187;42.778;23.242;2023-04-25T02:56:55;6.57;;;5.10;;
8297;SDS011;4187;42.778;23.242;2023-04-25T02:59:22;6.00;;;5.40;;
8297;SDS011;4187;42.778;23.242;2023-04-25T03:01:48;5.97;;;4.47;;
8297;SDS011;4187;42.778;23.242;2023-04-25T03:04:15;6.05;;;5.07;;
8297;SDS011;4187;42.778;23.242;2023-04-25T03:06:45;5.60;;;5.10;;
8297;SDS011;4187;42.778;23.242;2023-04-25T03:09:12;4.53;;;3.97;;
8297;SDS011;4187;42.778;23.242;2023-04-25T03:11:38;4.85;;;4.45;;
8297;SDS011;4187;42.778;23.242;2023-04-25T03:14:05;5.70;;;4.75;;
8297;SDS011;4187;42.778;23.242;2023-04-25T03:16:32;5.30;;;4.72;;
8297;SDS011;4187;42.778;23.242;2023-04-25T03:18:59;7.00;;;4.40;;
8297;SDS011;4187;42.778;23.242;2023-04-25T03:21:26;4.28;;;3.10;;
8297;SDS011;4187;42.778;23.242;2023-04-25T03:23:54;3.60;;;3.10;;
8297;SDS011;4187;42.778;23.242;2023-04-25T03:26:21;3.20;;;2.90;;
8297;SDS011;4187;42.778;23.242;2023-04-25T03:28:48;5.00;;;3.17;;
8297;SDS011;4187;42.778;23.242;2023-04-25T03:31:14;3.97;;;2.60;;
8297;SDS011;4187;42.778;23.242;2023-04-25T03:33:41;3.13;;;2.30;;
8297;SDS011;4187;42.778;23.242;2023-04-25T03:36:08;2.17;;;1.98;;
8297;SDS011;4187;42.778;23.242;2023-04-25T03:38:35;2.83;;;2.50;;
8297;SDS011;4187;42.778;23.242;2023-04-25T03:41:03;3.00;;;2.58;;
8297;SDS011;4187;42.778;23.242;2023-04-25T03:43:30;2.90;;;2.20;;
8297;SDS011;4187;42.778;23.242;2023-04-25T03:45:57;4.05;;;2.30;;
8297;SDS011;4187;42.778;23.242;2023-04-25T03:48:24;3.63;;;2.67;;
8297;SDS011;4187;42.778;23.242;2023-04-25T03:50:51;2.70;;;2.10;;
8297;SDS011;4187;42.778;23.242;2023-04-25T03:53:19;3.65;;;2.60;;
8297;SDS011;4187;42.778;23.242;2023-04-25T03:55:45;3.03;;;2.58;;
8297;SDS011;4187;42.778;23.242;2023-04-25T03:58:13;2.70;;;2.22;;
8297;SDS011;4187;42.778;23.242;2023-04-25T04:00:40;4.85;;;2.78;;
8297;SDS011;4187;42.778;23.242;2023-04-25T04:03:07;3.80;;;3.10;;
8297;SDS011;4187;42.778;23.242;2023-04-25T04:05:34;6.07;;;3.03;;
8297;SDS011;4187;42.778;23.242;2023-04-25T04:08:02;5.10;;;3.25;;
8297;SDS011;4187;42.778;23.242;2023-04-25T04:10:29;6.32;;;3.80;;
8297;SDS011;4187;42.778;23.242;2023-04-25T04:12:56;6.43;;;4.25;;
8297;SDS011;4187;42.778;23.242;2023-04-25T04:15:24;4.20;;;3.20;;
8297;SDS011;4187;42.778;23.242;2023-04-25T04:17:50;8.38;;;6.75;;
8297;SDS011;4187;42.778;23.242;2023-04-25T04:20:17;4.53;;;4.05;;
8297;SDS011;4187;42.778;23.242;2023-04-25T04:22:44;5.38;;;4.85;;
8297;SDS011;4187;42.778;23.242;2023-04-25T04:25:11;7.00;;;5.28;;
8297;SDS011;4187;42.778;23.242;2023-04-25T04:27:38;7.30;;;5.05;;
8297;SDS011;4187;42.778;23.242;2023-04-25T04:30:06;7.75;;;4.53;;
8297;SDS011;4187;42.778;23.242;2023-04-25T04:32:35;6.55;;;4.57;;
8297;SDS011;4187;42.778;23.242;2023-04-25T04:35:02;4.28;;;3.47;;
8297;SDS011;4187;42.778;23.242;2023-04-25T04:37:31;4.82;;;3.40;;
8297;SDS011;4187;42.778;23.242;2023-04-25T04:39:58;4.30;;;3.35;;
8297;SDS011;4187;42.778;23.242;2023-04-25T04:42:26;3.47;;;3.17;;
8297;SDS011;4187;42.778;23.242;2023-04-25T04:44:53;3.78;;;3.10;;
8297;SDS011;4187;42.778;23.242;2023-04-25T04:47:20;5.03;;;3.20;;
8297;SDS011;4187;42.778;23.242;2023-04-25T04:49:50;3.67;;;3.33;;
8297;SDS011;4187;42.778;23.242;2023-04-25T04:52:16;3.50;;;3.20;;
8297;SDS011;4187;42.778;23.242;2023-04-25T04:54:43;3.97;;;3.22;;
8297;SDS011;4187;42.778;23.242;2023-04-25T04:57:10;4.60;;;3.65;;
8297;SDS011;4187;42.778;23.242;2023-04-25T04:59:37;7.50;;;4.97;;
8297;SDS011;4187;42.778;23.242;2023-04-25T05:02:04;7.43;;;5.43;;
8297;SDS011;4187;42.778;23.242;2023-04-25T05:04:31;7.13;;;5.18;;
8297;SDS011;4187;42.778;23.242;2023-04-25T05:06:59;5.72;;;4.43;;
8297;SDS011;4187;42.778;23.242;2023-04-25T05:09:26;7.45;;;5.43;;
8297;SDS011;4187;42.778;23.242;2023-04-25T05:11:53;4.63;;;4.22;;
8297;SDS011;4187;42.778;23.242;2023-04-25T05:14:20;4.50;;;4.05;;
8297;SDS011;4187;42.778;23.242;2023-04-25T05:16:47;5.10;;;4.03;;
8297;SDS011;4187;42.778;23.242;2023-04-25T05:19:14;4.30;;;3.90;;
8297;SDS011;4187;42.778;23.242;2023-04-25T05:21:41;3.28;;;2.97;;
8297;SDS011;4187;42.778;23.242;2023-04-25T05:24:10;4.70;;;3.22;;
8297;SDS011;4187;42.778;23.242;2023-04-25T05:26:37;3.80;;;3.40;;
8297;SDS011;4187;42.778;23.242;2023-04-25T05:29:05;4.05;;;3.65;;
8297;SDS011;4187;42.778;23.242;2023-04-25T05:31:32;4.85;;;4.13;;
8297;SDS011;4187;42.778;23.242;2023-04-25T05:33:59;3.88;;;3.50;;
8297;SDS011;4187;42.778;23.242;2023-04-25T05:36:26;12.27;;;8.35;;
8297;SDS011;4187;42.778;23.242;2023-04-25T05:38:53;15.95;;;14.68;;
8297;SDS011;4187;42.778;23.242;2023-04-25T05:41:21;11.52;;;10.27;;
8297;SDS011;4187;42.778;23.242;2023-04-25T05:43:48;7.90;;;7.10;;
8297;SDS011;4187;42.778;23.242;2023-04-25T05:46:15;5.88;;;5.38;;
8297;SDS011;4187;42.778;23.242;2023-04-25T05:48:42;6.15;;;5.65;;
8297;SDS011;4187;42.778;23.242;2023-04-25T05:51:09;6.95;;;5.88;;
8297;SDS011;4187;42.778;23.242;2023-04-25T05:53:36;5.25;;;4.43;;
8297;SDS011;4187;42.778;23.242;2023-04-25T05:56:03;5.10;;;4.45;;
8297;SDS011;4187;42.778;23.242;2023-04-25T05:58:31;8.05;;;5.05;;
8297;SDS011;4187;42.778;23.242;2023-04-25T06:00:58;6.45;;;4.43;;
8297;SDS011;4187;42.778;23.242;2023-04-25T06:03:25;5.60;;;3.78;;
8297;SDS011;4187;42.778;23.242;2023-04-25T06:05:52;4.43;;;4.13;;
8297;SDS011;4187;42.778;23.242;2023-04-25T06:08:19;25.02;;;17.95;;
8297;SDS011;4187;42.778;23.242;2023-04-25T06:10:46;6.07;;;5.30;;
8297;SDS011;4187;42.778;23.242;2023-04-25T06:13:12;6.03;;;5.10;;
8297;SDS011;4187;42.778;23.242;2023-04-25T06:15:41;6.63;;;5.32;;
8297;SDS011;4187;42.778;23.242;2023-04-25T06:18:08;6.18;;;5.53;;
8297;SDS011;4187;42.778;23.242;2023-04-25T06:20:35;7.47;;;5.72;;
8297;SDS011;4187;42.778;23.242;2023-04-25T06:23:02;6.25;;;5.55;;
8297;SDS011;4187;42.778;23.242;2023-04-25T06:25:29;6.00;;;5.40;;
8297;SDS011;4187;42.778;23.242;2023-04-25T06:27:55;7.07;;;6.47;;
8297;SDS011;4187;42.778;23.242;2023-04-25T06:30:22;7.88;;;7.10;;
8297;SDS011;4187;42.778;23.242;2023-04-25T06:32:52;9.82;;;8.38;;
8297;SDS011;4187;42.778;23.242;2023-04-25T06:35:19;9.73;;;8.73;;
8297;SDS011;4187;42.778;23.242;2023-04-25T06:37:46;10.27;;;9.07;;
8297;SDS011;4187;42.778;23.242;2023-04-25T06:40:12;9.27;;;8.38;;
8297;SDS011;4187;42.778;23.242;2023-04-25T06:42:40;7.85;;;7.07;;
8297;SDS011;4187;42.778;23.242;2023-04-25T06:45:07;5.95;;;5.05;;
8297;SDS011;4187;42.778;23.242;2023-04-25T06:47:34;4.03;;;3.70;;
8297;SDS011;4187;42.778;23.242;2023-04-25T06:50:02;4.30;;;3.67;;
8297;SDS011;4187;42.778;23.242;2023-04-25T06:52:30;4.25;;;3.85;;
8297;SDS011;4187;42.778;23.242;2023-04-25T06:54:57;4.78;;;4.05;;
8297;SDS011;4187;42.778;23.242;2023-04-25T06:57:24;6.13;;;4.38;;
8297;SDS011;4187;42.778;23.242;2023-04-25T06:59:51;5.28;;;4.00;;
8297;SDS011;4187;42.778;23.242;2023-04-25T07:02:17;8.73;;;4.68;;
8297;SDS011;4187;42.778;23.242;2023-04-25T07:04:46;4.68;;;4.20;;
8297;SDS011;4187;42.778;23.242;2023-04-25T07:07:14;5.40;;;3.83;;
8297;SDS011;4187;42.778;23.242;2023-04-25T07:09:42;4.75;;;4.35;;
8297;SDS011;4187;42.778;23.242;2023-04-25T07:12:08;6.40;;;4.55;;
8297;SDS011;4187;42.778;23.242;2023-04-25T07:14:35;4.82;;;3.85;;
8297;SDS011;4187;42.778;23.242;2023-04-25T07:17:02;4.80;;;4.30;;
8297;SDS011;4187;42.778;23.242;2023-04-25T07:19:31;4.88;;;4.47;;
8297;SDS011;4187;42.778;23.242;2023-04-25T07:21:58;5.25;;;4.57;;
8297;SDS011;4187;42.778;23.242;2023-04-25T07:24:26;5.15;;;4.65;;
8297;SDS011;4187;42.778;23.242;2023-04-25T07:26:53;7.72;;;4.70;;
8297;SDS011;4187;42.778;23.242;2023-04-25T07:29:20;6.00;;;3.90;;
8297;SDS011;4187;42.778;23.242;2023-04-25T07:31:47;4.13;;;3.72;;
8297;SDS011;4187;42.778;23.242;2023-04-25T07:34:13;5.25;;;3.88;;
8297;SDS011;4187;42.778;23.242;2023-04-25T07:36:40;5.40;;;4.35;;
8297;SDS011;4187;42.778;23.242;2023-04-25T07:39:07;7.43;;;4.93;;
8297;SDS011;4187;42.778;23.242;2023-04-25T07:41:35;5.32;;;4.53;;
8297;SDS011;4187;42.778;23.242;2023-04-25T07:44:02;5.45;;;4.60;;
8297;SDS011;4187;42.778;23.242;2023-04-25T07:46:29;5.32;;;3.85;;
8297;SDS011;4187;42.778;23.242;2023-04-25T07:48:56;5.50;;;4.53;;
8297;SDS011;4187;42.778;23.242;2023-04-25T07:51:23;5.80;;;3.70;;
8297;SDS011;4187;42.778;23.242;2023-04-25T07:53:51;4.75;;;3.67;;
8297;SDS011;4187;42.778;23.242;2023-04-25T07:56:17;6.78;;;5.10;;
8297;SDS011;4187;42.778;23.242;2023-04-25T07:58:45;4.53;;;4.13;;
8297;SDS011;4187;42.778;23.242;2023-04-25T08:01:12;6.85;;;5.80;;
8297;SDS011;4187;42.778;23.242;2023-04-25T08:03:39;7.78;;;5.50;;
8297;SDS011;4187;42.778;23.242;2023-04-25T08:06:06;5.15;;;4.75;;
8297;SDS011;4187;42.778;23.242;2023-04-25T08:08:33;3.70;;;3.30;;
8297;SDS011;4187;42.778;23.242;2023-04-25T08:11:00;5.30;;;4.03;;
8297;SDS011;4187;42.778;23.242;2023-04-25T08:13:27;4.47;;;2.78;;
8297;SDS011;4187;42.778;23.242;2023-04-25T08:15:55;4.18;;;2.47;;
8297;SDS011;4187;42.778;23.242;2023-04-25T08:18:22;4.75;;;3.20;;
8297;SDS011;4187;42.778;23.242;2023-04-25T08:20:49;2.67;;;2.40;;
8297;SDS011;4187;42.778;23.242;2023-04-25T08:23:15;2.70;;;2.38;;
8297;SDS011;4187;42.778;23.242;2023-04-25T08:25:42;2.60;;;2.10;;
8297;SDS011;4187;42.778;23.242;2023-04-25T08:28:09;2.58;;;2.38;;
8297;SDS011;4187;42.778;23.242;2023-04-25T08:30:36;2.33;;;2.13;;
8297;SDS011;4187;42.778;23.242;2023-04-25T08:33:04;2.30;;;2.10;;
8297;SDS011;4187;42.778;23.242;2023-04-25T08:35:31;3.05;;;2.30;;
8297;SDS011;4187;42.778;23.242;2023-04-25T08:37:59;3.30;;;2.33;;
8297;SDS011;4187;42.778;23.242;2023-04-25T08:40:27;5.45;;;2.55;;
8297;SDS011;4187;42.778;23.242;2023-04-25T08:42:55;5.10;;;2.42;;
8297;SDS011;4187;42.778;23.242;2023-04-25T08:45:23;2.53;;;2.33;;
8297;SDS011;4187;42.778;23.242;2023-04-25T08:47:53;2.85;;;2.30;;
8297;SDS011;4187;42.778;23.242;2023-04-25T08:50:23;3.63;;;2.47;;
8297;SDS011;4187;42.778;23.242;2023-04-25T08:52:51;3.22;;;2.83;;
8297;SDS011;4187;42.778;23.242;2023-04-25T08:55:20;2.60;;;2.40;;
8297;SDS011;4187;42.778;23.242;2023-04-25T08:57:48;3.63;;;2.40;;
8297;SDS011;4187;42.778;23.242;2023-04-25T09:00:16;5.05;;;2.75;;
8297;SDS011;4187;42.778;23.242;2023-04-25T09:02:44;2.33;;;2.13;;
8297;SDS011;4187;42.778;23.242;2023-04-25T09:05:13;3.15;;;1.90;;
8297;SDS011;4187;42.778;23.242;2023-04-25T09:07:41;2.97;;;2.67;;
8297;SDS011;4187;42.778;23.242;2023-04-25T09:10:09;4.25;;;2.17;;
8297;SDS011;4187;42.778;23.242;2023-04-25T09:12:35;2.50;;;2.30;;
8297;SDS011;4187;42.778;23.242;2023-04-25T09:15:06;2.30;;;2.10;;
8297;SDS011;4187;42.778;23.242;2023-04-25T09:17:34;3.80;;;2.17;;
8297;SDS011;4187;42.778;23.242;2023-04-25T09:20:05;3.40;;;2.85;;
8297;SDS011;4187;42.778;23.242;2023-04-25T09:22:34;3.95;;;3.05;;
8297;SDS011;4187;42.778;23.242;2023-04-25T09:25:03;4.47;;;2.90;;
8297;SDS011;4187;42.778;23.242;2023-04-25T09:27:34;4.45;;;2.50;;
8297;SDS011;4187;42.778;23.242;2023-04-25T09:30:01;4.60;;;2.40;;
8297;SDS011;4187;42.778;23.242;2023-04-25T09:32:28;2.67;;;1.77;;
8297;SDS011;4187;42.778;23.242;2023-04-25T09:34:55;4.15;;;1.90;;
8297;SDS011;4187;42.778;23.242;2023-04-25T09:37:23;2.20;;;2.00;;
8297;SDS011;4187;42.778;23.242;2023-04-25T09:39:53;3.05;;;2.85;;
8297;SDS011;4187;42.778;23.242;2023-04-25T09:42:23;3.47;;;2.33;;
8297;SDS011;4187;42.778;23.242;2023-04-25T09:44:51;2.38;;;1.60;;
8297;SDS011;4187;42.778;23.242;2023-04-25T09:47:18;1.92;;;1.50;;
8297;SDS011;4187;42.778;23.242;2023-04-25T09:49:47;2.90;;;1.67;;
8297;SDS011;4187;42.778;23.242;2023-04-25T09:52:14;2.20;;;1.60;;
8297;SDS011;4187;42.778;23.242;2023-04-25T09:54:42;1.48;;;1.38;;
8297;SDS011;4187;42.778;23.242;2023-04-25T09:57:10;2.53;;;1.52;;
8297;SDS011;4187;42.778;23.242;2023-04-25T09:59:43;4.15;;;1.58;;
8297;SDS011;4187;42.778;23.242;2023-04-25T10:02:11;1.95;;;1.45;;
8297;SDS011;4187;42.778;23.242;2023-04-25T10:04:41;1.88;;;1.40;;
8297;SDS011;4187;42.778;23.242;2023-04-25T10:07:13;1.98;;;1.30;;
8297;SDS011;4187;42.778;23.242;2023-04-25T10:09:40;5.05;;;2.90;;
8297;SDS011;4187;42.778;23.242;2023-04-25T10:12:10;4.32;;;2.50;;
8297;SDS011;4187;42.778;23.242;2023-04-25T10:14:37;5.15;;;2.72;;
8297;SDS011;4187;42.778;23.242;2023-04-25T10:17:06;2.88;;;1.50;;
8297;SDS011;4187;42.778;23.242;2023-04-25T10:19:36;3.08;;;0.98;;
8297;SDS011;4187;42.778;23.242;2023-04-25T10:22:06;3.75;;;1.00;;
8297;SDS011;4187;42.778;23.242;2023-04-25T10:24:35;2.60;;;0.90;;
8297;SDS011;4187;42.778;23.242;2023-04-25T10:27:02;1.17;;;1.00;;
8297;SDS011;4187;42.778;23.242;2023-04-25T10:29:30;9.07;;;1.67;;
8297;SDS011;4187;42.778;23.242;2023-04-25T10:31:58;1.98;;;1.05;;
8297;SDS011;4187;42.778;23.242;2023-04-25T10:34:37;3.78;;;1.30;;
8297;SDS011;4187;42.778;23.242;2023-04-25T10:37:05;2.15;;;1.17;;
8297;SDS011;4187;42.778;23.242;2023-04-25T10:39:35;1.55;;;1.02;;
8297;SDS011;4187;42.778;23.242;2023-04-25T10:42:02;2.13;;;1.27;;
8297;SDS011;4187;42.778;23.242;2023-04-25T10:44:29;2.55;;;1.73;;
8297;SDS011;4187;42.778;23.242;2023-04-25T10:46:57;2.58;;;2.00;;
8297;SDS011;4187;42.778;23.242;2023-04-25T10:49:30;2.10;;;1.70;;
8297;SDS011;4187;42.778;23.242;2023-04-25T10:52:10;1.73;;;1.13;;
8297;SDS011;4187;42.778;23.242;2023-04-25T10:54:47;2.20;;;1.35;;
8297;SDS011;4187;42.778;23.242;2023-04-25T10:57:31;2.50;;;1.20;;
8297;SDS011;4187;42.778;23.242;2023-04-25T11:00:05;3.88;;;2.67;;
8297;SDS011;4187;42.778;23.242;2023-04-25T11:02:38;4.38;;;2.72;;
8297;SDS011;4187;42.778;23.242;2023-04-25T11:05:08;5.10;;;3.38;;
8297;SDS011;4187;42.778;23.242;2023-04-25T11:07:37;4.78;;;2.80;;
8297;SDS011;4187;42.778;23.242;2023-04-25T11:10:05;1.40;;;0.80;;
8297;SDS011;4187;42.778;23.242;2023-04-25T11:12:33;1.33;;;1.23;;
8297;SDS011;4187;42.778;23.242;2023-04-25T11:15:00;1.30;;;1.20;;
8297;SDS011;4187;42.778;23.242;2023-04-25T11:17:28;1.10;;;0.70;;
8297;SDS011;4187;42.778;23.242;2023-04-25T11:20:00;2.38;;;1.45;;
8297;SDS011;4187;42.778;23.242;2023-04-25T11:22:27;2.13;;;1.75;;
8297;SDS011;4187;42.778;23.242;2023-04-25T11:24:55;1.52;;;1.25;;
8297;SDS011;4187;42.778;23.242;2023-04-25T11:27:21;2.10;;;1.45;;
8297;SDS011;4187;42.778;23.242;2023-04-25T11:29:50;2.83;;;2.30;;
8297;SDS011;4187;42.778;23.242;2023-04-25T11:32:17;2.17;;;1.40;;
8297;SDS011;4187;42.778;23.242;2023-04-25T11:34:44;1.30;;;0.95;;
8297;SDS011;4187;42.778;23.242;2023-04-25T11:37:12;1.55;;;0.98;;
8297;SDS011;4187;42.778;23.242;2023-04-25T11:39:44;1.83;;;1.48;;
8297;SDS011;4187;42.778;23.242;2023-04-25T11:42:12;1.70;;;1.60;;
8297;SDS011;4187;42.778;23.242;2023-04-25T11:44:39;1.00;;;0.80;;
8297;SDS011;4187;42.778;23.242;2023-04-25T11:47:06;1.90;;;1.10;;
8297;SDS011;4187;42.778;23.242;2023-04-25T11:49:33;0.93;;;0.70;;
8297;SDS011;4187;42.778;23.242;2023-04-25T11:52:01;2.15;;;0.77;;
8297;SDS011;4187;42.778;23.242;2023-04-25T11:54:29;1.15;;;1.05;;
8297;SDS011;4187;42.778;23.242;2023-04-25T11:56:56;0.90;;;0.80;;
8297;SDS011;4187;42.778;23.242;2023-04-25T11:59:23;1.85;;;1.13;;
8297;SDS011;4187;42.778;23.242;2023-04-25T12:01:51;1.02;;;0.82;;
8297;SDS011;4187;42.778;23.242;2023-04-25T12:04:19;1.10;;;0.70;;
8297;SDS011;4187;42.778;23.242;2023-04-25T12:06:48;2.00;;;1.10;;
8297;SDS011;4187;42.778;23.242;2023-04-25T12:09:17;1.30;;;0.80;;
8297;SDS011;4187;42.778;23.242;2023-04-25T12:11:48;1.10;;;0.80;;
8297;SDS011;4187;42.778;23.242;2023-04-25T12:14:22;1.80;;;0.98;;
8297;SDS011;4187;42.778;23.242;2023-04-25T12:16:52;5.28;;;0.80;;
8297;SDS011;4187;42.778;23.242;2023-04-25T12:19:22;8.27;;;2.22;;
8297;SDS011;4187;42.778;23.242;2023-04-25T12:21:50;2.75;;;1.35;;
8297;SDS011;4187;42.778;23.242;2023-04-25T12:24:17;1.67;;;0.85;;
8297;SDS011;4187;42.778;23.242;2023-04-25T12:26:51;1.27;;;0.93;;
8297;SDS011;4187;42.778;23.242;2023-04-25T12:29:20;1.95;;;0.90;;
8297;SDS011;4187;42.778;23.242;2023-04-25T12:31:49;2.17;;;1.45;;
8297;SDS011;4187;42.778;23.242;2023-04-25T12:34:17;2.42;;;1.70;;
8297;SDS011;4187;42.778;23.242;2023-04-25T12:36:44;2.92;;;1.90;;
8297;SDS011;4187;42.778;23.242;2023-04-25T12:39:15;1.50;;;1.30;;
8297;SDS011;4187;42.778;23.242;2023-04-25T12:41:42;2.15;;;1.25;;
8297;SDS011;4187;42.778;23.242;2023-04-25T12:44:11;1.48;;;1.10;;
8297;SDS011;4187;42.778;23.242;2023-04-25T12:46:38;2.50;;;1.27;;
8297;SDS011;4187;42.778;23.242;2023-04-25T12:49:05;1.45;;;1.13;;
8297;SDS011;4187;42.778;23.242;2023-04-25T12:51:33;1.98;;;1.58;;
8297;SDS011;4187;42.778;23.242;2023-04-25T12:54:00;2.30;;;1.40;;
8297;SDS011;4187;42.778;23.242;2023-04-25T12:56:28;3.80;;;1.60;;
8297;SDS011;4187;42.778;23.242;2023-04-25T12:58:55;2.33;;;1.45;;
8297;SDS011;4187;42.778;23.242;2023-04-25T13:01:23;3.45;;;1.30;;
8297;SDS011;4187;42.778;23.242;2023-04-25T13:03:51;2.17;;;1.10;;
8297;SDS011;4187;42.778;23.242;2023-04-25T13:06:18;1.35;;;1.00;;
8297;SDS011;4187;42.778;23.242;2023-04-25T13:08:46;1.27;;;1.13;;
8297;SDS011;4187;42.778;23.242;2023-04-25T13:11:12;1.38;;;1.23;;
8297;SDS011;4187;42.778;23.242;2023-04-25T13:13:40;2.20;;;1.38;;
8297;SDS011;4187;42.778;23.242;2023-04-25T13:16:07;2.92;;;1.75;;
8297;SDS011;4187;42.778;23.242;2023-04-25T13:18:35;2.95;;;1.70;;
8297;SDS011;4187;42.778;23.242;2023-04-25T13:21:03;1.98;;;1.20;;
8297;SDS011;4187;42.778;23.242;2023-04-25T13:23:30;1.92;;;1.23;;
8297;SDS011;4187;42.778;23.242;2023-04-25T13:25:56;1.48;;;1.35;;
8297;SDS011;4187;42.778;23.242;2023-04-25T13:28:23;3.55;;;1.58;;
8297;SDS011;4187;42.778;23.242;2023-04-25T13:30:50;3.35;;;1.00;;
8297;SDS011;4187;42.778;23.242;2023-04-25T13:33:17;1.15;;;0.70;;
8297;SDS011;4187;42.778;23.242;2023-04-25T13:35:46;1.55;;;0.80;;
8297;SDS011;4187;42.778;23.242;2023-04-25T13:38:18;1.80;;;0.80;;
8297;SDS011;4187;42.778;23.242;2023-04-25T13:40:46;0.80;;;0.70;;
8297;SDS011;4187;42.778;23.242;2023-04-25T13:43:13;1.23;;;0.80;;
8297;SDS011;4187;42.778;23.242;2023-04-25T13:45:40;2.08;;;0.80;;
8297;SDS011;4187;42.778;23.242;2023-04-25T13:48:06;1.40;;;0.73;;
8297;SDS011;4187;42.778;23.242;2023-04-25T13:50:33;0.80;;;0.70;;
8297;SDS011;4187;42.778;23.242;2023-04-25T13:53:01;0.70;;;0.70;;
8297;SDS011;4187;42.778;23.242;2023-04-25T13:55:28;0.90;;;0.60;;
8297;SDS011;4187;42.778;23.242;2023-04-25T13:57:55;3.63;;;0.93;;
8297;SDS011;4187;42.778;23.242;2023-04-25T14:00:22;1.55;;;1.02;;
8297;SDS011;4187;42.778;23.242;2023-04-25T14:02:49;2.45;;;1.00;;
8297;SDS011;4187;42.778;23.242;2023-04-25T14:05:16;2.80;;;0.98;;
8297;SDS011;4187;42.778;23.242;2023-04-25T14:07:42;0.85;;;0.73;;
8297;SDS011;4187;42.778;23.242;2023-04-25T14:10:11;1.13;;;0.80;;
8297;SDS011;4187;42.778;23.242;2023-04-25T14:12:37;1.42;;;0.98;;
8297;SDS011;4187;42.778;23.242;2023-04-25T14:15:05;1.27;;;1.00;;
8297;SDS011;4187;42.778;23.242;2023-04-25T14:17:32;1.58;;;0.88;;
8297;SDS011;4187;42.778;23.242;2023-04-25T14:19:59;1.00;;;0.82;;
8297;SDS011;4187;42.778;23.242;2023-04-25T14:22:26;1.65;;;1.10;;
8297;SDS011;4187;42.778;23.242;2023-04-25T14:24:53;1.65;;;0.85;;
8297;SDS011;4187;42.778;23.242;2023-04-25T14:27:21;0.95;;;0.73;;
8297;SDS011;4187;42.778;23.242;2023-04-25T14:29:47;1.42;;;0.80;;
8297;SDS011;4187;42.778;23.242;2023-04-25T14:32:14;1.00;;;0.90;;
8297;SDS011;4187;42.778;23.242;2023-04-25T14:34:41;1.00;;;0.80;;
8297;SDS011;4187;42.778;23.242;2023-04-25T14:37:08;1.02;;;0.80;;
8297;SDS011;4187;42.778;23.242;2023-04-25T14:39:34;1.80;;;1.10;;
8297;SDS011;4187;42.778;23.242;2023-04-25T14:42:01;1.92;;;1.08;;
8297;SDS011;4187;42.778;23.242;2023-04-25T14:44:29;2.75;;;1.92;;
8297;SDS011;4187;42.778;23.242;2023-04-25T14:46:56;0.75;;;0.73;;
8297;SDS011;4187;42.778;23.242;2023-04-25T14:49:23;1.00;;;0.70;;
8297;SDS011;4187;42.778;23.242;2023-04-25T14:51:50;2.13;;;1.35;;
8297;SDS011;4187;42.778;23.242;2023-04-25T14:54:17;2.88;;;1.00;;
8297;SDS011;4187;42.778;23.242;2023-04-25T14:56:43;2.13;;;0.77;;
8297;SDS011;4187;42.778;23.242;2023-04-25T14:59:10;1.13;;;0.98;;
8297;SDS011;4187;42.778;23.242;2023-04-25T15:01:38;1.77;;;1.10;;
8297;SDS011;4187;42.778;23.242;2023-04-25T15:04:05;3.47;;;1.20;;